Wetterstation Vordersexau
Wetterdaten: Woche 12.06.17 - 18.06.17 (KW24)
Datum Zeit Temp. A. Feuchte A. Luftdruck Regen Wind Richtung Taupunkt Windchill Windben
12.06.2017 00:00 18,2 C 80 % 1012,9 hPa 0,0 l/m 0,0 km/h O-SO 14,7 C 18,2 C 0,0 km/h
12.06.2017 01:00 17,1 C 82 % 1013,1 hPa 0,0 l/m 0,0 km/h O 14,0 C 17,1 C 0,0 km/h
12.06.2017 02:00 17,0 C 82 % 1013,1 hPa 0,0 l/m 0,0 km/h O-SO 13,9 C 17,0 C 0,0 km/h
12.06.2017 03:00 16,9 C 83 % 1012,8 hPa 0,0 l/m 0,0 km/h O-SO 14,0 C 16,9 C 0,0 km/h
12.06.2017 04:00 16,4 C 83 % 1012,5 hPa 0,0 l/m 0,0 km/h O-SO 13,5 C 16,4 C 0,0 km/h
12.06.2017 05:00 17,9 C 83 % 1013,5 hPa 0,0 l/m 0,0 km/h O-SO 15,0 C 17,9 C 0,0 km/h
12.06.2017 06:00 19,1 C 83 % 1013,6 hPa 0,0 l/m 0,0 km/h O-SO 16,1 C 19,1 C 0,0 km/h
12.06.2017 07:00 21,3 C 80 % 1014,0 hPa 0,0 l/m 0,0 km/h O-SO 17,7 C 21,3 C 0,0 km/h
12.06.2017 08:00 27,2 C 66 % 1014,4 hPa 0,0 l/m 0,0 km/h N 20,3 C 27,2 C 0,0 km/h
12.06.2017 09:00 25,3 C 62 % 1014,7 hPa 0,0 l/m 10,4 km/h N 17,5 C 24,4 C 5,8 km/h
12.06.2017 10:00 24,8 C 63 % 1015,3 hPa 0,0 l/m 0,0 km/h N-NO 17,3 C 24,8 C 0,0 km/h
12.06.2017 11:00 25,0 C 61 % 1015,7 hPa 0,0 l/m 1,9 km/h N-NO 16,9 C 25,0 C 1,1 km/h
12.06.2017 12:00 25,5 C 58 % 1015,8 hPa 0,0 l/m 0,0 km/h N-NO 16,6 C 25,5 C 0,0 km/h
12.06.2017 13:00 26,6 C 57 % 1015,4 hPa 0,0 l/m 0,0 km/h W-NW 17,4 C 26,6 C 0,0 km/h
12.06.2017 14:00 26,2 C 55 % 1015,4 hPa 0,0 l/m 0,0 km/h O 16,4 C 26,2 C 0,0 km/h
12.06.2017 15:00 29,3 C 48 % 1015,0 hPa 0,0 l/m 0,0 km/h N-NO 17,1 C 29,3 C 0,0 km/h
12.06.2017 16:00 32,8 C 36 % 1014,7 hPa 0,0 l/m 3,2 km/h N 15,7 C 32,8 C 1,8 km/h
12.06.2017 17:00 28,6 C 39 % 1014,6 hPa 0,0 l/m 5,8 km/h N-NO 13,3 C 28,6 C 3,2 km/h
12.06.2017 18:00 25,4 C 43 % 1014,6 hPa 0,0 l/m 0,0 km/h N-NW 11,9 C 25,4 C 0,0 km/h
12.06.2017 19:00 23,9 C 46 % 1015,1 hPa 0,0 l/m 0,0 km/h N 11,6 C 23,9 C 0,0 km/h
12.06.2017 20:00 18,0 C 61 % 1015,6 hPa 0,0 l/m 0,0 km/h NO 10,4 C 18,0 C 0,0 km/h
12.06.2017 21:00 14,7 C 72 % 1015,9 hPa 0,0 l/m 0,0 km/h NO 9,7 C 14,7 C 0,0 km/h
12.06.2017 22:00 13,5 C 76 % 1016,2 hPa 0,0 l/m 0,0 km/h O 9,4 C 13,5 C 0,0 km/h
12.06.2017 23:00 12,8 C 78 % 1016,2 hPa 0,0 l/m 0,0 km/h O 9,1 C 12,8 C 0,0 km/h
13.06.2017 00:00 11,9 C 80 % 1016,4 hPa 0,0 l/m 0,0 km/h O 8,6 C 11,9 C 0,0 km/h
13.06.2017 01:00 11,6 C 83 % 1016,4 hPa 0,0 l/m 0,0 km/h NO 8,8 C 11,6 C 0,0 km/h
13.06.2017 02:00 10,6 C 83 % 1016,3 hPa 0,0 l/m 0,0 km/h NO 7,8 C 10,6 C 0,0 km/h
13.06.2017 03:00 9,8 C 84 % 1016,4 hPa 0,0 l/m 0,0 km/h NO 7,2 C 9,8 C 0,0 km/h
13.06.2017 04:00 9,8 C 84 % 1016,4 hPa 0,0 l/m 0,0 km/h NO 7,2 C 9,8 C 0,0 km/h
13.06.2017 05:00 9,9 C 84 % 1016,5 hPa 0,0 l/m 0,0 km/h NO 7,3 C 9,9 C 0,0 km/h
13.06.2017 06:00 11,0 C 84 % 1016,7 hPa 0,0 l/m 0,0 km/h O-SO 8,4 C 11,0 C 0,0 km/h
13.06.2017 07:00 15,5 C 83 % 1016,6 hPa 0,0 l/m 0,0 km/h NW 12,6 C 15,5 C 0,0 km/h
13.06.2017 08:00 23,7 C 56 % 1016,7 hPa 0,0 l/m 0,0 km/h N-NW 14,4 C 23,7 C 0,0 km/h
13.06.2017 09:00 25,5 C 48 % 1016,5 hPa 0,0 l/m 0,0 km/h W-NW 13,7 C 25,5 C 0,0 km/h
13.06.2017 10:00 25,9 C 51 % 1016,2 hPa 0,0 l/m 0,0 km/h W 15,0 C 25,9 C 0,0 km/h
13.06.2017 11:00 25,9 C 49 % 1015,9 hPa 0,0 l/m 1,9 km/h W-SW 14,4 C 25,9 C 1,1 km/h
13.06.2017 12:00 27,0 C 48 % 1015,7 hPa 0,0 l/m 0,0 km/h W 15,0 C 27,0 C 0,0 km/h
13.06.2017 13:00 26,9 C 48 % 1015,2 hPa 0,0 l/m 1,9 km/h W-NW 14,9 C 26,9 C 1,1 km/h
13.06.2017 14:00 28,1 C 45 % 1014,6 hPa 0,0 l/m 0,0 km/h W-SW 15,0 C 28,1 C 0,0 km/h
13.06.2017 15:00 28,5 C 44 % 1014,0 hPa 0,0 l/m 7,1 km/h W 15,0 C 28,4 C 4,0 km/h
13.06.2017 16:00 31,1 C 34 % 1013,7 hPa 0,0 l/m 0,0 km/h N 13,4 C 31,1 C 0,0 km/h
13.06.2017 17:00 33,3 C 28 % 1013,6 hPa 0,0 l/m 12,3 km/h N 12,3 C 33,3 C 6,8 km/h
13.06.2017 18:00 32,4 C 29 % 1013,1 hPa 0,0 l/m 0,0 km/h N-NO 12,1 C 32,4 C 0,0 km/h
13.06.2017 19:00 24,9 C 38 % 1013,1 hPa 0,0 l/m 14,9 km/h N 9,6 C 23,2 C 8,3 km/h
13.06.2017 20:00 21,4 C 47 % 1013,3 hPa 0,0 l/m 0,0 km/h N-NO 9,6 C 21,4 C 0,0 km/h
13.06.2017 21:00 17,3 C 63 % 1014,3 hPa 0,0 l/m 0,0 km/h N-NO 10,2 C 17,3 C 0,0 km/h
13.06.2017 22:00 15,8 C 68 % 1014,2 hPa 0,0 l/m 0,0 km/h N-NO 9,9 C 15,8 C 0,0 km/h
13.06.2017 23:00 14,9 C 73 % 1014,5 hPa 0,0 l/m 0,0 km/h N-NO 10,1 C 14,9 C 0,0 km/h
14.06.2017 00:00 14,3 C 75 % 1014,8 hPa 0,0 l/m 0,0 km/h N-NO 9,9 C 14,3 C 0,0 km/h
14.06.2017 01:00 13,3 C 81 % 1014,4 hPa 0,0 l/m 0,0 km/h O-NO 10,1 C 13,3 C 0,0 km/h
14.06.2017 02:00 12,4 C 81 % 1014,0 hPa 0,0 l/m 0,0 km/h O-NO 9,2 C 12,4 C 0,0 km/h
14.06.2017 03:00 13,1 C 82 % 1014,8 hPa 0,0 l/m 0,0 km/h O-NO 10,1 C 13,1 C 0,0 km/h
14.06.2017 04:00 12,5 C 83 % 1014,8 hPa 0,0 l/m 0,0 km/h NO 9,7 C 12,5 C 0,0 km/h
14.06.2017 05:00 12,6 C 84 % 1014,7 hPa 0,0 l/m 0,0 km/h NO 10,0 C 12,6 C 0,0 km/h
14.06.2017 06:00 14,2 C 83 % 1015,1 hPa 0,0 l/m 0,0 km/h NO 11,4 C 14,2 C 0,0 km/h
14.06.2017 07:00 15,8 C 83 % 1015,1 hPa 0,0 l/m 0,0 km/h W-NW 12,9 C 15,8 C 0,0 km/h
14.06.2017 08:00 20,0 C 73 % 1015,5 hPa 0,0 l/m 0,0 km/h W 15,0 C 20,0 C 0,0 km/h
14.06.2017 09:00 25,1 C 56 % 1015,1 hPa 0,0 l/m 0,0 km/h W 15,7 C 25,1 C 0,0 km/h
14.06.2017 10:00 26,1 C 54 % 1014,7 hPa 0,0 l/m 0,0 km/h W-NW 16,0 C 26,1 C 0,0 km/h
14.06.2017 11:00 25,3 C 59 % 1014,5 hPa 0,0 l/m 0,0 km/h W-NW 16,7 C 25,3 C 0,0 km/h
14.06.2017 12:00 26,9 C 56 % 1014,1 hPa 0,0 l/m 0,0 km/h N 17,4 C 26,9 C 0,0 km/h
14.06.2017 13:00 29,0 C 51 % 1013,6 hPa 0,0 l/m 0,0 km/h W 17,8 C 29,0 C 0,0 km/h
14.06.2017 14:00 29,9 C 51 % 1013,2 hPa 0,0 l/m 0,0 km/h W 18,6 C 29,9 C 0,0 km/h
14.06.2017 15:00 27,6 C 53 % 1013,0 hPa 0,0 l/m 3,2 km/h W 17,1 C 27,6 C 1,8 km/h
14.06.2017 16:00 30,9 C 50 % 1012,4 hPa 0,0 l/m 0,0 km/h N-NO 19,2 C 30,9 C 0,0 km/h
14.06.2017 17:00 33,5 C 40 % 1011,6 hPa 0,0 l/m 0,0 km/h N 18,0 C 33,5 C 0,0 km/h
14.06.2017 18:00 33,6 C 40 % 1011,8 hPa 0,0 l/m 0,0 km/h N 18,1 C 33,6 C 0,0 km/h
14.06.2017 19:00 27,2 C 52 % 1011,3 hPa 0,0 l/m 0,0 km/h NW 16,5 C 27,2 C 0,0 km/h
14.06.2017 20:00 24,4 C 60 % 1012,0 hPa 0,0 l/m 0,0 km/h NW 16,1 C 24,4 C 0,0 km/h
14.06.2017 21:00 19,9 C 73 % 1012,2 hPa 0,0 l/m 0,0 km/h NW 14,9 C 19,9 C 0,0 km/h
14.06.2017 22:00 18,6 C 79 % 1012,2 hPa 0,0 l/m 0,0 km/h NW 14,9 C 18,6 C 0,0 km/h
14.06.2017 23:00 17,6 C 81 % 1012,5 hPa 0,0 l/m 0,0 km/h N 14,3 C 17,6 C 0,0 km/h
15.06.2017 00:00 17,3 C 82 % 1012,8 hPa 0,0 l/m 0,0 km/h N 14,2 C 17,3 C 0,0 km/h
15.06.2017 01:00 16,2 C 83 % 1013,1 hPa 0,0 l/m 0,0 km/h N 13,3 C 16,2 C 0,0 km/h
15.06.2017 02:00 15,6 C 83 % 1013,4 hPa 0,0 l/m 0,0 km/h N 12,7 C 15,6 C 0,0 km/h
15.06.2017 03:00 15,6 C 83 % 1013,0 hPa 0,0 l/m 0,0 km/h N 12,7 C 15,6 C 0,0 km/h
15.06.2017 04:00 15,5 C 83 % 1013,2 hPa 0,0 l/m 0,0 km/h N 12,6 C 15,5 C 0,0 km/h
15.06.2017 05:00 14,8 C 83 % 1013,5 hPa 0,0 l/m 0,0 km/h N 11,9 C 14,8 C 0,0 km/h
15.06.2017 06:00 16,2 C 82 % 1013,7 hPa 0,0 l/m 0,0 km/h O 13,1 C 16,2 C 0,0 km/h
15.06.2017 07:00 20,3 C 82 % 1013,8 hPa 0,0 l/m 0,0 km/h N-NW 17,1 C 20,3 C 0,0 km/h
15.06.2017 08:00 27,9 C 59 % 1014,0 hPa 0,0 l/m 0,0 km/h W 19,1 C 27,9 C 0,0 km/h
15.06.2017 09:00 30,3 C 51 % 1014,0 hPa 0,0 l/m 0,0 km/h W-SW 19,0 C 30,3 C 0,0 km/h
15.06.2017 10:00 29,9 C 52 % 1014,1 hPa 0,0 l/m 0,0 km/h SW 19,0 C 29,9 C 0,0 km/h
15.06.2017 11:00 30,4 C 52 % 1014,3 hPa 0,0 l/m 1,3 km/h W 19,4 C 30,4 C 0,7 km/h
15.06.2017 12:00 30,8 C 47 % 1014,0 hPa 0,0 l/m 0,0 km/h S 18,2 C 30,8 C 0,0 km/h
15.06.2017 13:00 32,1 C 44 % 1013,7 hPa 0,0 l/m 18,1 km/h S-SO 18,3 C 31,9 C 10,1 km/h
15.06.2017 14:00 33,0 C 43 % 1013,3 hPa 0,0 l/m 0,6 km/h SW 18,7 C 33,0 C 0,4 km/h
15.06.2017 15:00 33,2 C 42 % 1012,4 hPa 0,0 l/m 0,0 km/h W 18,5 C 33,2 C 0,0 km/h
15.06.2017 16:00 32,9 C 43 % 1012,5 hPa 0,0 l/m 2,6 km/h S 18,6 C 32,9 C 1,4 km/h
15.06.2017 17:00 33,4 C 43 % 1011,9 hPa 0,0 l/m 3,2 km/h SW 19,1 C 33,4 C 1,8 km/h
15.06.2017 18:00 28,9 C 51 % 1011,6 hPa 0,0 l/m 9,1 km/h N-NO 17,7 C 28,6 C 5,0 km/h
15.06.2017 19:00 24,3 C 62 % 1014,4 hPa 0,0 l/m 1,3 km/h SO 16,5 C 24,3 C 0,7 km/h
15.06.2017 20:00 20,5 C 79 % 1014,0 hPa 0,5 l/m 4,5 km/h O-SO 16,7 C 20,5 C 2,5 km/h
15.06.2017 21:00 19,3 C 81 % 1014,0 hPa 0,0 l/m 0,0 km/h NO 16,0 C 19,3 C 0,0 km/h
15.06.2017 22:00 18,1 C 83 % 1014,4 hPa 0,0 l/m 0,0 km/h O-NO 15,2 C 18,1 C 0,0 km/h
15.06.2017 23:00 17,4 C 83 % 1015,1 hPa 0,0 l/m 0,0 km/h O 14,5 C 17,4 C 0,0 km/h
16.06.2017 00:00 17,1 C 82 % 1014,9 hPa 0,0 l/m 0,0 km/h O 14,0 C 17,1 C 0,0 km/h
16.06.2017 01:00 17,6 C 81 % 1015,3 hPa 0,0 l/m 0,0 km/h O 14,3 C 17,6 C 0,0 km/h
16.06.2017 02:00 17,5 C 82 % 1015,9 hPa 0,0 l/m 0,0 km/h O 14,4 C 17,5 C 0,0 km/h
16.06.2017 03:00 17,3 C 81 % 1016,2 hPa 0,0 l/m 0,0 km/h O 14,0 C 17,3 C 0,0 km/h
16.06.2017 04:00 17,1 C 80 % 1016,4 hPa 0,0 l/m 0,0 km/h O 13,6 C 17,1 C 0,0 km/h
16.06.2017 05:00 17,4 C 80 % 1017,3 hPa 0,0 l/m 0,0 km/h N-NW 13,9 C 17,4 C 0,0 km/h
16.06.2017 06:00 18,6 C 81 % 1017,6 hPa 0,0 l/m 0,0 km/h N-NO 15,3 C 18,6 C 0,0 km/h
16.06.2017 07:00 19,9 C 81 % 1018,3 hPa 0,0 l/m 1,9 km/h W-NW 16,5 C 19,9 C 1,1 km/h
16.06.2017 08:00 24,7 C 56 % 1018,4 hPa 0,0 l/m 3,2 km/h N-NO 15,3 C 24,7 C 1,8 km/h
16.06.2017 09:00 26,3 C 48 % 1018,7 hPa 0,0 l/m 8,4 km/h N 14,4 C 25,9 C 4,7 km/h
16.06.2017 10:00 26,4 C 49 % 1018,7 hPa 0,0 l/m 0,0 km/h N-NO 14,8 C 26,4 C 0,0 km/h
16.06.2017 11:00 25,6 C 44 % 1019,0 hPa 0,0 l/m 8,4 km/h NW 12,4 C 25,1 C 4,7 km/h
16.06.2017 12:00 25,4 C 41 % 1019,0 hPa 0,0 l/m 0,0 km/h N 11,2 C 25,4 C 0,0 km/h
16.06.2017 13:00 26,6 C 39 % 1018,9 hPa 0,0 l/m 1,3 km/h N-NO 11,5 C 26,6 C 0,7 km/h
16.06.2017 14:00 27,2 C 35 % 1019,1 hPa 0,0 l/m 17,5 km/h N 10,4 C 25,7 C 9,7 km/h
16.06.2017 15:00 26,4 C 36 % 1019,2 hPa 0,0 l/m 0,0 km/h N-NW 10,1 C 26,4 C 0,0 km/h
16.06.2017 16:00 28,7 C 34 % 1019,3 hPa 0,0 l/m 0,0 km/h N 11,3 C 28,7 C 0,0 km/h
16.06.2017 17:00 28,7 C 33 % 1019,4 hPa 0,0 l/m 0,0 km/h W-NW 10,8 C 28,7 C 0,0 km/h
16.06.2017 18:00 26,9 C 38 % 1019,8 hPa 0,0 l/m 4,5 km/h N-NO 11,4 C 26,9 C 2,5 km/h
16.06.2017 19:00 22,1 C 47 % 1020,5 hPa 0,0 l/m 1,9 km/h N-NO 10,3 C 22,1 C 1,1 km/h
16.06.2017 20:00 20,1 C 53 % 1020,9 hPa 0,0 l/m 11,7 km/h N 10,2 C 18,2 C 6,5 km/h
16.06.2017 21:00 16,4 C 61 % 1021,6 hPa 0,0 l/m 0,0 km/h N 8,9 C 16,4 C 0,0 km/h
16.06.2017 22:00 14,6 C 69 % 1022,3 hPa 0,0 l/m 0,0 km/h N-NO 9,0 C 14,6 C 0,0 km/h
16.06.2017 23:00 13,3 C 73 % 1022,5 hPa 0,0 l/m 0,0 km/h N-NO 8,6 C 13,3 C 0,0 km/h
17.06.2017 00:00 12,1 C 77 % 1022,3 hPa 0,0 l/m 0,0 km/h N-NO 8,2 C 12,1 C 0,0 km/h
17.06.2017 01:00 11,5 C 80 % 1022,4 hPa 0,0 l/m 0,0 km/h N-NO 8,2 C 11,5 C 0,0 km/h
17.06.2017 02:00 10,9 C 82 % 1022,7 hPa 0,0 l/m 0,0 km/h N-NO 7,9 C 10,9 C 0,0 km/h
17.06.2017 03:00 10,2 C 83 % 1022,7 hPa 0,0 l/m 0,0 km/h N-NO 7,4 C 10,2 C 0,0 km/h
17.06.2017 04:00 9,7 C 83 % 1022,8 hPa 0,0 l/m 0,0 km/h N-NO 7,0 C 9,7 C 0,0 km/h
17.06.2017 05:00 10,1 C 84 % 1023,2 hPa 0,0 l/m 0,0 km/h N-NO 7,5 C 10,1 C 0,0 km/h
17.06.2017 06:00 11,1 C 84 % 1023,5 hPa 0,0 l/m 0,0 km/h O-SO 8,5 C 11,1 C 0,0 km/h
17.06.2017 07:00 15,3 C 83 % 1023,6 hPa 0,0 l/m 0,0 km/h W 12,4 C 15,3 C 0,0 km/h
17.06.2017 08:00 23,6 C 55 % 1023,7 hPa 0,0 l/m 0,0 km/h N 14,0 C 23,6 C 0,0 km/h
17.06.2017 09:00 24,9 C 51 % 1023,8 hPa 0,0 l/m 0,6 km/h W-NW 14,1 C 24,9 C 0,4 km/h
17.06.2017 10:00 23,8 C 50 % 1023,7 hPa 0,0 l/m 2,6 km/h NW 12,7 C 23,8 C 1,4 km/h
17.06.2017 11:00 22,6 C 49 % 1023,7 hPa 0,0 l/m 0,0 km/h NW 11,3 C 22,6 C 0,0 km/h
17.06.2017 12:00 23,8 C 48 % 1023,7 hPa 0,0 l/m 0,0 km/h N-NO 12,1 C 23,8 C 0,0 km/h
17.06.2017 13:00 24,4 C 45 % 1023,4 hPa 0,0 l/m 18,8 km/h W 11,7 C 22,0 C 10,4 km/h
17.06.2017 14:00 25,3 C 44 % 1023,2 hPa 0,0 l/m 2,6 km/h N-NO 12,2 C 25,3 C 1,4 km/h
17.06.2017 15:00 26,2 C 41 % 1022,4 hPa 0,0 l/m 17,5 km/h N 11,9 C 24,5 C 9,7 km/h
17.06.2017 16:00 27,4 C 42 % 1022,0 hPa 0,0 l/m 7,1 km/h N 13,3 C 27,3 C 4,0 km/h
17.06.2017 17:00 29,3 C 37 % 1021,9 hPa 0,0 l/m 29,2 km/h N-NO 13,1 C 27,8 C 16,2 km/h
17.06.2017 18:00 26,6 C 43 % 1021,7 hPa 0,0 l/m 0,0 km/h N 13,0 C 26,6 C 0,0 km/h
17.06.2017 19:00 22,3 C 53 % 1021,6 hPa 0,0 l/m 0,0 km/h N 12,2 C 22,3 C 0,0 km/h
17.06.2017 20:00 21,3 C 56 % 1021,8 hPa 0,0 l/m 5,8 km/h N-NO 12,2 C 21,3 C 3,2 km/h
17.06.2017 21:00 17,6 C 65 % 1021,9 hPa 0,0 l/m 0,0 km/h O-NO 10,9 C 17,6 C 0,0 km/h
17.06.2017 22:00 18,4 C 65 % 1022,3 hPa 0,0 l/m 0,0 km/h O-SO 11,7 C 18,4 C 0,0 km/h
17.06.2017 23:00 17,7 C 68 % 1022,3 hPa 0,0 l/m 0,0 km/h O 11,7 C 17,7 C 0,0 km/h
18.06.2017 00:00 17,4 C 71 % 1022,1 hPa 0,0 l/m 0,0 km/h N-NO 12,1 C 17,4 C 0,0 km/h
18.06.2017 01:00 15,9 C 75 % 1021,6 hPa 0,0 l/m 0,0 km/h NO 11,5 C 15,9 C 0,0 km/h
18.06.2017 02:00 16,1 C 74 % 1021,4 hPa 0,0 l/m 0,0 km/h NO 11,5 C 16,1 C 0,0 km/h
18.06.2017 03:00 13,0 C 77 % 1021,5 hPa 0,0 l/m 0,0 km/h NO 9,1 C 13,0 C 0,0 km/h
18.06.2017 04:00 12,0 C 80 % 1021,1 hPa 0,0 l/m 0,0 km/h W-NW 8,7 C 12,0 C 0,0 km/h
18.06.2017 05:00 12,2 C 83 % 1021,0 hPa 0,0 l/m 0,0 km/h W 9,4 C 12,2 C 0,0 km/h
18.06.2017 06:00 13,2 C 83 % 1020,8 hPa 0,0 l/m 0,0 km/h W-SW 10,4 C 13,2 C 0,0 km/h
18.06.2017 07:00 18,7 C 79 % 1020,7 hPa 0,0 l/m 0,0 km/h N 15,0 C 18,7 C 0,0 km/h
18.06.2017 08:00 26,1 C 51 % 1020,6 hPa 0,0 l/m 0,0 km/h N-NO 15,2 C 26,1 C 0,0 km/h
18.06.2017 09:00 27,8 C 46 % 1020,4 hPa 0,0 l/m 0,0 km/h O-SO 15,1 C 27,8 C 0,0 km/h
18.06.2017 10:00 27,6 C 45 % 1020,2 hPa 0,0 l/m 3,9 km/h SO 14,6 C 27,6 C 2,2 km/h
18.06.2017 11:00 27,4 C 45 % 1019,8 hPa 0,0 l/m 14,9 km/h N-NO 14,4 C 26,2 C 8,3 km/h
18.06.2017 12:00 27,9 C 41 % 1019,3 hPa 0,0 l/m 0,0 km/h N 13,4 C 27,9 C 0,0 km/h
18.06.2017 13:00 29,2 C 42 % 1018,4 hPa 0,0 l/m 11,0 km/h N 14,9 C 28,7 C 6,1 km/h
18.06.2017 14:00 30,3 C 38 % 1017,9 hPa 0,0 l/m 8,4 km/h N-NO 14,4 C 30,1 C 4,7 km/h
18.06.2017 15:00 29,9 C 37 % 1017,5 hPa 0,0 l/m 4,5 km/h N 13,6 C 29,9 C 2,5 km/h
18.06.2017 16:00 32,1 C 33 % 1017,1 hPa 0,0 l/m 20,1 km/h N-NO 13,8 C 31,8 C 11,2 km/h
18.06.2017 17:00 33,9 C 30 % 1017,0 hPa 0,0 l/m 6,5 km/h N-NO 13,9 C 33,9 C 3,6 km/h
18.06.2017 18:00 33,5 C 31 % 1016,8 hPa 0,0 l/m 0,0 km/h NO 14,0 C 33,5 C 0,0 km/h
18.06.2017 19:00 26,4 C 40 % 1017,2 hPa 0,0 l/m 0,0 km/h N-NO 11,7 C 26,4 C 0,0 km/h
18.06.2017 20:00 24,4 C 45 % 1017,3 hPa 0,0 l/m 0,0 km/h O-SO 11,7 C 24,4 C 0,0 km/h
18.06.2017 21:00 19,9 C 53 % 1018,0 hPa 0,0 l/m 0,0 km/h O-SO 10,0 C 19,9 C 0,0 km/h
18.06.2017 22:00 17,9 C 62 % 1018,3 hPa 0,0 l/m 0,0 km/h SO 10,5 C 17,9 C 0,0 km/h
18.06.2017 23:00 15,6 C 66 % 1018,2 hPa 0,0 l/m 0,0 km/h O-SO 9,3 C 15,6 C 0,0 km/h
Min-Datum _ 17.06.17 13.06.17 14.06.17 - 12.06.17 - 17.06.17 17.06.17 12.06.17
_ Min-Zeit 04:55 17:55 19:55 - 00:55 - 04:55 04:55 00:55
Minimum _ 9,7 C 28 % 1011,3 hPa - 0,0 km/h - 7,0 C 9,7 C 0,0 km/h
Max-Datum _ 18.06.17 13.06.17 17.06.17 15.06.17 17.06.17 - 12.06.17 18.06.17 17.06.17
_ Max-Zeit 17:55 03:55 09:55 20:55 17:55 - 08:55 17:55 17:55
Maximum _ 33,9 C 84 % 1023,8 hPa 0,5 l/m 29,2 km/h
N-NO
- 20,3 C 33,9 C 16,2 km/h
N-NO
Durchschnitt _ 21,7 C 62 % 1016,8 hPa #0,5 l/m 1,9 km/h N-NO 13,2 C 21,6 C 1,0 km/h
www.sexauwetter.de